Time;durP1;ratioP1;P1;durP2;ratioP2;P2;SDS_P1;SDS_P2;PMS_P1;PMS_P2;Temp;Humidity;BMP_temperature;BMP_pressure;BME280_temperature;BME280_humidity;BME280_pressure;Samples;Min_cycle;Max_cycle;Signal;HPM_P1;HPM_P2
2023/07/05 00:01:33;;;;;;;10.55;8.25;;;;;;;24.17;81.53;99879.56;5086001;28;20488;-19
2023/07/05 00:03:59;;;;;;;11.20;7.57;;;;;;;23.93;83.05;99874.53;5087232;28;20027;-17
2023/07/05 00:06:27;;;;;;;11.50;7.55;;;;;;;23.98;82.75;99877.09;5086657;28;20016;-17
2023/07/05 00:09:00;;;;;;;9.90;7.95;;;;;;;24.25;81.31;99876.06;5086883;28;20035;-18
2023/07/05 00:11:28;;;;;;;10.77;8.43;;;;;;;24.28;81.05;99883.63;5087009;28;20119;-20
2023/07/05 00:13:53;;;;;;;11.95;8.00;;;;;;;24.19;82.17;99883.63;5086935;28;20085;-16
2023/07/05 00:16:20;;;;;;;10.60;7.78;;;;;;;23.99;83.15;99884.16;5086482;28;20019;-17
2023/07/05 00:18:48;;;;;;;12.40;8.60;;;;;;;24.08;82.65;99881.47;5086538;28;20033;-17
2023/07/05 00:21:14;;;;;;;10.55;7.60;;;;;;;24.07;82.46;99880.66;5086276;28;20544;-18
2023/07/05 00:23:45;;;;;;;11.23;8.02;;;;;;;23.87;83.83;99876.56;5086327;28;20039;-18
2023/07/05 00:26:10;;;;;;;10.20;7.97;;;;;;;23.77;84.65;99876.84;5086296;28;20142;-17
2023/07/05 00:28:36;;;;;;;11.07;8.05;;;;;;;23.57;85.35;99873.47;5086613;28;20032;-19
2023/07/05 00:31:03;;;;;;;11.43;8.30;;;;;;;23.49;85.65;99879.66;5086443;28;20024;-18
2023/07/05 00:33:34;;;;;;;12.03;8.17;;;;;;;23.48;86.65;99878.06;5086814;28;20065;-18
2023/07/05 00:36:02;;;;;;;11.93;8.63;;;;;;;23.44;87.05;99868.91;5086476;28;20024;-17
2023/07/05 00:38:29;;;;;;;13.75;8.65;;;;;;;23.70;85.74;99870.97;5086402;28;20085;-18
2023/07/05 00:40:55;;;;;;;;;;;;;;;23.66;86.01;99868.91;5086471;28;20455;-17
2023/07/05 00:43:20;;;;;;;12.18;9.18;;;;;;;23.58;85.66;99875.09;5086086;28;19983;-17
2023/07/05 00:45:56;;;;;;;10.52;9.23;;;;;;;23.57;87.18;99872.66;5086082;28;20020;-17
2023/07/05 00:48:34;;;;;;;11.63;8.85;;;;;;;23.40;87.21;99870.66;5086276;28;20051;-18
2023/07/05 00:51:04;;;;;;;12.52;9.13;;;;;;;23.37;86.90;99860.38;5086008;28;20024;-22
2023/07/05 00:53:33;;;;;;;14.48;9.55;;;;;;;23.25;87.77;99869.91;5086239;28;20032;-17
2023/07/05 00:56:06;;;;;;;14.38;9.77;;;;;;;23.27;89.19;99869.56;5086168;28;20027;-18
2023/07/05 00:58:32;;;;;;;12.77;10.18;;;;;;;23.33;89.05;99871.06;5085913;28;20114;-18
2023/07/05 01:00:57;;;;;;;13.70;9.57;;;;;;;23.08;90.50;99877.91;5085898;28;20111;-17
2023/07/05 01:03:25;;;;;;;13.43;10.02;;;;;;;23.18;90.20;99866.00;5085816;28;20065;-19
2023/07/05 01:05:55;;;;;;;14.30;10.10;;;;;;;23.08;88.72;99874.38;5086198;28;20035;-18
2023/07/05 01:08:21;;;;;;;13.20;10.23;;;;;;;23.09;89.62;99867.81;5085537;28;20107;-17
2023/07/05 01:11:13;;;;;;;12.70;10.10;;;;;;;23.35;88.40;99866.09;5085578;28;20107;-17
2023/07/05 01:13:52;;;;;;;13.23;9.80;;;;;;;23.08;90.14;99868.94;5074137;28;20036;-18
2023/07/05 01:16:44;;;;;;;14.80;9.88;;;;;;;22.94;90.92;99866.22;5085659;28;20024;-17
2023/07/05 01:19:30;;;;;;;13.90;10.32;;;;;;;23.00;89.75;99870.44;5085541;28;20036;-18
2023/07/05 01:22:03;;;;;;;11.57;9.70;;;;;;;22.95;89.01;99876.81;5085180;28;20045;-17
2023/07/05 01:24:53;;;;;;;13.75;10.45;;;;;;;22.98;88.45;99861.78;5085730;28;20097;-17
2023/07/05 01:28:03;;;;;;;13.88;10.88;;;;;;;23.13;89.08;99880.53;5085329;28;20075;-17
2023/07/05 01:30:28;;;;;;;12.48;10.30;;;;;;;22.96;89.94;99869.44;5002620;28;20105;-18
2023/07/05 01:33:02;;;;;;;13.57;9.88;;;;;;;22.96;89.86;99872.16;5067858;28;20543;-17
2023/07/05 01:35:44;;;;;;;14.18;10.60;;;;;;;22.82;90.53;99875.72;5085473;28;20044;-17
2023/07/05 01:38:12;;;;;;;15.30;10.48;;;;;;;22.85;90.95;99872.41;5084968;28;20127;-17
2023/07/05 01:41:06;;;;;;;13.40;10.35;;;;;;;23.12;90.72;99861.78;5085173;28;20043;-17
2023/07/05 01:43:36;;;;;;;14.02;9.95;;;;;;;23.04;89.93;99866.03;5085030;28;20024;-23
2023/07/05 01:46:01;;;;;;;16.75;10.35;;;;;;;22.95;90.20;99862.41;5085358;28;20024;-17
2023/07/05 01:48:56;;;;;;;12.50;10.05;;;;;;;22.86;91.21;99865.84;5083372;28;20036;-17
2023/07/05 01:51:44;;;;;;;13.32;10.13;;;;;;;22.89;91.57;99863.63;5067433;28;20043;-18
2023/07/05 01:54:45;;;;;;;11.68;9.40;;;;;;;22.56;93.34;99871.94;5084933;28;20028;-17
2023/07/05 01:57:26;;;;;;;13.30;9.68;;;;;;;22.45;94.43;99865.91;5053894;28;20111;-17
2023/07/05 02:00:02;;;;;;;14.73;10.40;;;;;;;22.39;95.43;99870.66;5084492;28;20024;-18
2023/07/05 02:02:32;;;;;;;14.50;10.90;;;;;;;22.18;96.65;99866.69;5084903;28;20117;-18
2023/07/05 02:05:01;;;;;;;12.73;10.70;;;;;;;21.81;100.00;99863.81;5084808;28;20032;-18
2023/07/05 02:07:28;;;;;;;11.98;10.07;;;;;;;22.12;100.00;99863.25;5084801;28;20028;-16
2023/07/05 02:09:55;;;;;;;14.43;10.73;;;;;;;21.92;100.00;99852.78;5085001;28;20140;-17
2023/07/05 02:12:21;;;;;;;14.23;11.07;;;;;;;21.84;100.00;99846.13;5084689;28;20424;-18
2023/07/05 02:14:47;;;;;;;14.15;10.00;;;;;;;21.95;100.00;99869.28;5084255;28;20024;-17
2023/07/05 02:17:13;;;;;;;13.75;10.40;;;;;;;22.22;100.00;99871.22;5084515;28;20020;-18
2023/07/05 02:19:38;;;;;;;14.85;10.40;;;;;;;22.39;98.43;99862.50;5084308;28;20035;-17
2023/07/05 02:22:04;;;;;;;15.88;10.45;;;;;;;22.40;97.64;99879.59;5084473;28;20047;-18
2023/07/05 02:24:29;;;;;;;13.60;10.55;;;;;;;22.06;99.87;99875.31;5083842;28;20107;-18
2023/07/05 02:26:55;;;;;;;16.58;11.82;;;;;;;21.95;100.00;99874.72;5084595;28;20044;-17
2023/07/05 02:29:21;;;;;;;13.45;10.75;;;;;;;21.87;100.00;99867.25;5084361;28;20024;-18
2023/07/05 02:31:49;;;;;;;15.73;11.45;;;;;;;22.05;100.00;99881.88;5084428;28;20036;-17
2023/07/05 02:34:17;;;;;;;12.88;10.70;;;;;;;22.30;99.56;99874.38;5084350;28;20047;-17
2023/07/05 02:36:43;;;;;;;14.27;11.10;;;;;;;22.01;100.00;99883.56;5083977;28;20036;-17
2023/07/05 02:39:08;;;;;;;14.40;11.30;;;;;;;22.02;100.00;99885.16;5084323;28;20032;-17
2023/07/05 02:41:34;;;;;;;16.73;11.57;;;;;;;22.29;99.78;99895.28;5084320;28;20024;-17
2023/07/05 02:43:59;;;;;;;15.57;11.63;;;;;;;22.41;97.72;99892.91;5084041;28;20024;-18
2023/07/05 02:46:26;;;;;;;14.32;11.55;;;;;;;22.44;98.33;99892.28;5084365;28;20032;-16
2023/07/05 02:48:56;;;;;;;17.55;12.23;;;;;;;22.43;98.47;99898.84;5083977;28;20770;-17
2023/07/05 02:51:22;;;;;;;13.98;11.65;;;;;;;22.60;97.20;99900.13;5084461;28;20036;-17
2023/07/05 02:53:48;;;;;;;14.80;11.63;;;;;;;22.58;96.23;99908.56;5084324;28;20039;-18
2023/07/05 02:56:14;;;;;;;14.38;11.35;;;;;;;22.65;95.53;99908.16;5083996;28;20024;-17
2023/07/05 02:58:40;;;;;;;13.65;11.30;;;;;;;22.18;98.42;99896.56;5084183;28;20040;-17
2023/07/05 03:01:06;;;;;;;14.93;11.10;;;;;;;21.94;100.00;99894.81;5083991;28;20024;-17
2023/07/05 03:03:31;;;;;;;15.50;11.77;;;;;;;21.74;100.00;99895.16;5084189;28;20056;-17
2023/07/05 03:05:58;;;;;;;16.40;11.35;;;;;;;21.84;100.00;99889.56;5084232;28;20122;-17
2023/07/05 03:08:25;;;;;;;15.60;12.65;;;;;;;22.04;100.00;99897.34;5084012;28;20055;-17
2023/07/05 03:10:55;;;;;;;19.88;12.27;;;;;;;22.23;100.00;99880.16;5083956;28;20114;-17
2023/07/05 03:13:27;;;;;;;19.00;12.77;;;;;;;22.10;100.00;99887.19;5084257;28;20022;-18
2023/07/05 03:15:53;;;;;;;17.15;13.32;;;;;;;22.27;100.00;99875.75;5084270;28;20024;-17
2023/07/05 03:18:23;;;;;;;15.90;12.45;;;;;;;21.87;100.00;99888.97;5083824;28;20050;-17
2023/07/05 03:20:51;;;;;;;21.15;12.25;;;;;;;21.84;100.00;99884.94;5083894;28;20027;-17
2023/07/05 03:23:17;;;;;;;15.68;12.10;;;;;;;22.25;100.00;99888.84;5083767;28;20116;-17
2023/07/05 03:25:58;;;;;;;15.65;11.82;;;;;;;22.12;100.00;99889.63;5084052;28;20103;-17
2023/07/05 03:28:27;;;;;;;16.13;12.27;;;;;;;22.00;100.00;99882.75;5083671;28;20074;-17
2023/07/05 03:31:04;;;;;;;15.23;12.05;;;;;;;22.34;100.00;99886.25;5083588;28;20032;-17
2023/07/05 03:33:33;;;;;;;14.82;11.23;;;;;;;21.98;100.00;99890.38;5083640;28;20032;-19
2023/07/05 03:35:59;;;;;;;17.40;12.55;;;;;;;21.97;100.00;99883.34;5083742;28;20605;-17
2023/07/05 03:38:31;;;;;;;15.85;11.82;;;;;;;21.85;100.00;99881.13;5086951;28;20432;-16
2023/07/05 03:41:03;;;;;;;15.05;11.73;;;;;;;21.94;100.00;99878.50;5087775;28;20028;-18
2023/07/05 03:43:30;;;;;;;16.42;12.93;;;;;;;22.12;100.00;99878.75;5086981;28;20123;-17
2023/07/05 03:46:07;;;;;;;;;;;;;;;22.37;100.00;99885.63;5088028;28;20024;-17
2023/07/05 03:48:40;;;;;;;17.52;12.02;;;;;;;22.62;100.00;99893.28;5087216;28;20018;-18
2023/07/05 03:51:08;;;;;;;18.83;14.15;;;;;;;22.48;100.00;99880.81;5087478;28;20034;-19
2023/07/05 03:53:34;;;;;;;16.17;13.10;;;;;;;22.83;98.61;99881.97;5087247;28;20420;-19
2023/07/05 03:56:05;;;;;;;18.27;13.98;;;;;;;22.95;98.12;99889.59;5087081;28;20035;-16
2023/07/05 03:58:31;;;;;;;16.42;12.43;;;;;;;22.96;96.74;99874.88;5086739;28;20038;-20
2023/07/05 04:01:05;;;;;;;16.73;13.60;;;;;;;23.13;95.17;99885.13;5086917;28;20040;-17
2023/07/05 04:03:32;;;;;;;19.65;14.05;;;;;;;23.26;94.57;99890.53;5086643;28;20036;-18
2023/07/05 04:05:57;;;;;;;16.27;13.33;;;;;;;22.99;97.38;99885.16;5087162;28;20020;-17
2023/07/05 04:08:23;;;;;;;17.67;12.57;;;;;;;22.77;100.00;99875.84;5086806;28;20028;-17
2023/07/05 04:10:49;;;;;;;17.05;13.25;;;;;;;23.04;98.26;99885.06;5087033;28;20150;-18
2023/07/05 04:13:15;;;;;;;15.38;13.05;;;;;;;22.92;99.48;99884.75;5086719;28;20424;-18
2023/07/05 04:15:40;;;;;;;15.45;12.63;;;;;;;23.01;99.65;99888.38;5086955;28;20452;-18
2023/07/05 04:18:06;;;;;;;15.93;12.80;;;;;;;22.97;99.88;99881.94;5086895;28;20092;-17
2023/07/05 04:20:33;;;;;;;15.85;13.13;;;;;;;22.74;100.00;99879.19;5086827;28;20107;-17
2023/07/05 04:22:59;;;;;;;16.25;13.38;;;;;;;23.31;98.22;99880.63;5086589;28;20024;-18
2023/07/05 04:25:25;;;;;;;16.77;12.60;;;;;;;23.47;96.71;99884.59;5074752;28;20028;-17
2023/07/05 04:27:51;;;;;;;16.40;12.90;;;;;;;23.36;97.05;99888.69;5066212;28;20139;-18
2023/07/05 04:30:16;;;;;;;17.75;12.88;;;;;;;23.33;97.62;99890.09;5066019;28;20017;-17
2023/07/05 04:32:42;;;;;;;16.45;12.60;;;;;;;23.57;96.59;99892.53;5066743;28;20037;-17
2023/07/05 04:35:07;;;;;;;16.33;13.15;;;;;;;23.82;94.29;99893.84;5066080;28;20406;-22
2023/07/05 04:37:33;;;;;;;15.43;13.02;;;;;;;24.02;93.05;99895.22;5073002;28;20044;-18
2023/07/05 04:39:58;;;;;;;16.10;12.98;;;;;;;23.93;93.28;99886.22;5066182;28;20021;-17
2023/07/05 04:42:24;;;;;;;17.08;13.07;;;;;;;23.79;95.01;99885.50;5079036;28;20596;-17
2023/07/05 04:44:49;;;;;;;17.35;12.90;;;;;;;23.79;93.72;99880.03;5085978;28;20028;-17
2023/07/05 04:47:16;;;;;;;15.70;11.85;;;;;;;23.98;92.50;99891.50;5085533;28;20024;-18
2023/07/05 04:49:46;;;;;;;15.40;12.30;;;;;;;24.02;90.59;99887.03;5086673;28;20020;-17
2023/07/05 04:52:15;;;;;;;15.25;12.38;;;;;;;23.91;92.76;99888.44;5085673;28;20039;-17
2023/07/05 04:54:41;;;;;;;17.13;12.55;;;;;;;23.72;92.99;99869.56;5085782;28;20028;-17
2023/07/05 04:57:06;;;;;;;16.08;12.27;;;;;;;23.96;92.39;99901.13;5086271;28;20028;-17
2023/07/05 04:59:31;;;;;;;18.15;13.20;;;;;;;24.35;88.92;99892.16;5085738;28;20044;-17
2023/07/05 05:02:02;;;;;;;15.60;12.65;;;;;;;24.37;89.10;99889.09;5086095;28;20034;-18
2023/07/05 05:04:27;;;;;;;17.02;12.57;;;;;;;24.71;86.18;99898.56;5085984;28;20020;-17
2023/07/05 05:06:56;;;;;;;16.45;12.85;;;;;;;24.73;85.87;99880.75;5085992;28;20082;-17
2023/07/05 05:09:21;;;;;;;16.75;12.00;;;;;;;24.83;86.80;99896.81;5085627;28;20035;-20
2023/07/05 05:11:47;;;;;;;15.95;11.68;;;;;;;24.94;84.35;99893.75;5084742;28;20039;-18
2023/07/05 05:14:15;;;;;;;15.23;11.25;;;;;;;24.99;84.24;99891.69;5085457;28;20759;-17
2023/07/05 05:16:40;;;;;;;16.17;11.73;;;;;;;25.03;82.83;99895.38;5085476;28;20020;-20
2023/07/05 05:19:05;;;;;;;14.43;11.57;;;;;;;25.09;81.67;99893.31;5085511;28;20027;-17
2023/07/05 05:21:31;;;;;;;13.95;11.85;;;;;;;25.03;82.79;99887.19;5085668;28;20031;-20
2023/07/05 05:23:56;;;;;;;13.68;11.35;;;;;;;24.83;84.50;99868.72;5085793;28;20020;-18
2023/07/05 05:26:24;;;;;;;14.60;11.07;;;;;;;24.98;84.18;99886.53;5085198;28;20032;-17
2023/07/05 05:28:49;;;;;;;13.43;11.65;;;;;;;25.11;82.97;99874.69;5085207;28;20111;-16
2023/07/05 05:31:15;;;;;;;13.70;11.43;;;;;;;24.69;85.23;99873.53;5085480;28;20050;-17
2023/07/05 05:33:40;;;;;;;14.25;10.48;;;;;;;24.85;84.86;99883.66;5085541;28;20052;-18
2023/07/05 05:36:06;;;;;;;14.18;11.18;;;;;;;25.32;83.28;99877.59;5085194;28;20054;-19
2023/07/05 05:38:35;;;;;;;16.27;10.70;;;;;;;25.24;81.86;99884.66;5085455;28;20028;-19
2023/07/05 05:41:08;;;;;;;16.60;11.30;;;;;;;25.46;80.70;99870.03;5085135;28;20039;-18
2023/07/05 05:43:34;;;;;;;15.40;11.10;;;;;;;25.79;77.41;99890.53;5085192;28;20028;-18
2023/07/05 05:45:59;;;;;;;14.45;10.60;;;;;;;25.83;78.77;99881.34;5084957;28;20020;-17
2023/07/05 05:48:25;;;;;;;14.77;10.32;;;;;;;25.97;75.27;99885.84;5085154;28;20028;-16
2023/07/05 05:50:51;;;;;;;12.43;10.40;;;;;;;25.96;74.81;99890.50;5084849;28;20031;-19
2023/07/05 05:53:16;;;;;;;14.25;9.48;;;;;;;26.09;74.29;99883.22;5085038;28;20081;-18
2023/07/05 05:55:44;;;;;;;15.50;11.73;;;;;;;26.40;72.09;99885.66;5085201;28;20725;-18
2023/07/05 05:58:09;;;;;;;;;;;;;;;26.55;70.13;99886.25;5085542;28;20031;-17
2023/07/05 06:00:36;;;;;;;13.53;10.30;;;;;;;26.45;71.83;99887.41;5083910;28;19916;-17
2023/07/05 06:03:02;;;;;;;12.47;9.37;;;;;;;26.41;70.75;99870.84;5085029;28;20278;-17
2023/07/05 06:05:27;;;;;;;10.63;8.45;;;;;;;26.60;68.94;99884.16;5084933;28;20609;-17
2023/07/05 06:07:55;;;;;;;15.57;9.98;;;;;;;26.78;70.34;99890.28;5084348;28;20073;-18
2023/07/05 06:10:23;;;;;;;10.90;7.47;;;;;;;26.73;64.37;99893.22;5084885;28;20020;-17
2023/07/05 06:12:48;;;;;;;10.75;7.30;;;;;;;26.65;61.22;99891.34;5084348;28;20024;-17
2023/07/05 06:15:17;;;;;;;10.57;7.88;;;;;;;26.91;61.78;99893.09;5084667;28;20051;-19
2023/07/05 06:17:44;;;;;;;12.02;8.23;;;;;;;26.97;62.62;99894.50;5084598;28;20056;-18
2023/07/05 06:20:10;;;;;;;13.07;7.68;;;;;;;26.89;63.04;99866.09;5084665;28;20032;-17
2023/07/05 06:22:38;;;;;;;9.90;7.68;;;;;;;27.04;63.43;99883.84;5084370;28;21004;-18
2023/07/05 06:25:07;;;;;;;9.68;7.93;;;;;;;27.15;62.54;99893.22;5084312;28;20028;-17
2023/07/05 06:27:35;;;;;;;28.10;22.17;;;;;;;27.33;60.89;99877.50;5084135;28;20051;-18
2023/07/05 06:30:01;;;;;;;15.48;12.45;;;;;;;27.36;61.49;99870.53;5084272;28;20051;-19
2023/07/05 06:32:30;;;;;;;11.90;7.95;;;;;;;27.60;60.59;99880.78;5076283;28;20028;-17
2023/07/05 06:35:05;;;;;;;8.95;6.93;;;;;;;27.74;59.42;99864.03;5063845;28;20021;-18
2023/07/05 06:37:31;;;;;;;10.70;8.07;;;;;;;27.79;59.56;99861.91;5064310;28;20028;-17
2023/07/05 06:39:56;;;;;;;10.95;6.97;;;;;;;27.87;57.64;99870.38;5064071;28;20398;-17
2023/07/05 06:42:29;;;;;;;10.02;7.38;;;;;;;27.91;56.69;99863.91;5073471;28;20035;-17
2023/07/05 06:44:54;;;;;;;9.00;7.10;;;;;;;28.04;57.24;99868.22;5084506;28;20062;-19
2023/07/05 06:47:20;;;;;;;11.98;6.63;;;;;;;28.00;56.01;99872.00;5084473;28;20115;-18
2023/07/05 06:49:45;;;;;;;10.52;7.30;;;;;;;28.05;56.29;99869.03;5084318;28;20545;-21
2023/07/05 06:52:11;;;;;;;10.18;7.60;;;;;;;27.93;58.75;99844.34;5084450;28;20026;-18
2023/07/05 06:54:39;;;;;;;10.93;7.72;;;;;;;28.12;58.25;99857.53;5084282;28;20071;-17
2023/07/05 06:57:04;;;;;;;11.02;7.60;;;;;;;28.24;56.33;99857.53;5084057;28;20055;-18
2023/07/05 06:59:31;;;;;;;9.68;7.43;;;;;;;28.22;59.32;99830.44;5083879;28;20424;-17
2023/07/05 07:01:57;;;;;;;12.32;7.50;;;;;;;28.26;57.42;99857.97;5083731;28;20518;-20
2023/07/05 07:04:22;;;;;;;9.73;7.43;;;;;;;28.34;56.53;99858.97;5083782;28;20028;-18
2023/07/05 07:06:48;;;;;;;11.60;9.15;;;;;;;28.45;56.37;99858.19;5083814;28;20035;-18
2023/07/05 07:09:13;;;;;;;10.25;7.80;;;;;;;28.69;55.18;99864.00;5084012;28;20412;-16
2023/07/05 07:11:39;;;;;;;9.18;6.60;;;;;;;28.74;53.48;99861.81;5086363;28;20065;-17
2023/07/05 07:14:04;;;;;;;12.90;8.00;;;;;;;28.98;55.62;99863.72;5087500;28;20016;-18
2023/07/05 07:16:30;;;;;;;10.70;7.40;;;;;;;28.99;56.11;99861.75;5087571;28;20120;-18
2023/07/05 07:18:55;;;;;;;13.10;8.43;;;;;;;28.82;56.56;99860.09;5087657;28;20436;-17
2023/07/05 07:21:21;;;;;;;12.05;8.30;;;;;;;28.63;58.10;99863.47;5086601;28;20432;-18
2023/07/05 07:23:47;;;;;;;11.98;7.38;;;;;;;28.73;56.94;99860.25;5086129;28;20036;-23
2023/07/05 07:26:17;;;;;;;12.13;8.03;;;;;;;28.63;54.06;99850.53;5086169;28;20024;-21
2023/07/05 07:28:46;;;;;;;9.77;7.60;;;;;;;28.54;54.91;99838.88;5086520;28;20024;-17
2023/07/05 07:31:18;;;;;;;10.40;7.68;;;;;;;28.85;55.21;99851.97;5087435;28;20028;-20
2023/07/05 07:33:45;;;;;;;11.27;8.13;;;;;;;28.92;53.11;99845.09;5087328;28;20567;-17
2023/07/05 07:36:16;;;;;;;10.30;7.78;;;;;;;28.94;55.98;99843.59;5086958;28;20714;-17
2023/07/05 07:38:43;;;;;;;11.75;7.60;;;;;;;29.07;54.18;99852.56;5086603;28;20040;-17
2023/07/05 07:41:17;;;;;;;11.83;7.90;;;;;;;28.94;55.17;99851.03;5087059;28;20028;-17
2023/07/05 07:43:43;;;;;;;10.70;7.55;;;;;;;29.11;54.54;99850.75;5087006;28;20024;-18
2023/07/05 07:46:11;;;;;;;10.63;7.78;;;;;;;29.21;54.99;99842.03;5086795;28;20043;-18
2023/07/05 07:48:39;;;;;;;9.07;7.57;;;;;;;29.34;53.40;99840.03;5085567;28;20024;-18
2023/07/05 07:51:04;;;;;;;10.48;7.55;;;;;;;29.85;52.89;99850.41;5087201;28;20028;-18
2023/07/05 07:53:32;;;;;;;11.00;7.93;;;;;;;29.69;53.99;99849.56;5082313;28;20816;-21
2023/07/05 07:56:00;;;;;;;12.68;7.55;;;;;;;29.63;50.15;99854.53;5080242;28;20048;-18
2023/07/05 07:58:31;;;;;;;11.88;7.60;;;;;;;29.72;52.49;99854.41;5085966;28;20054;-19
2023/07/05 08:00:56;;;;;;;11.95;8.10;;;;;;;29.71;50.20;99858.28;5084916;28;20446;-17
2023/07/05 08:03:21;;;;;;;13.02;7.25;;;;;;;29.76;50.31;99856.06;5086369;28;20589;-17
2023/07/05 08:05:51;;;;;;;12.55;7.93;;;;;;;29.97;51.02;99858.56;5086068;28;20031;-24
2023/07/05 08:08:16;;;;;;;9.70;7.35;;;;;;;30.34;50.63;99852.81;5085610;28;20024;-18
2023/07/05 08:10:42;;;;;;;12.13;8.07;;;;;;;30.42;52.39;99843.56;5082381;28;20069;-19
2023/07/05 08:13:09;;;;;;;12.45;7.97;;;;;;;30.58;51.39;99834.47;5086025;28;20036;-21
2023/07/05 08:15:37;;;;;;;11.82;7.63;;;;;;;30.40;50.64;99839.56;5086429;28;20031;-17
2023/07/05 08:18:04;;;;;;;;;;;;;;;30.30;50.85;99846.44;5086688;28;20103;-17
2023/07/05 08:20:30;;;;;;;11.02;8.15;;;;;;;30.56;49.88;99843.06;5086220;28;20389;-18
2023/07/05 08:23:00;;;;;;;9.60;7.85;;;;;;;30.34;50.16;99841.00;5085870;28;20032;-18
2023/07/05 08:25:25;;;;;;;10.25;7.57;;;;;;;30.62;50.40;99846.34;5078601;28;20012;-17
2023/07/05 08:27:53;;;;;;;12.93;7.22;;;;;;;30.42;50.16;99824.31;5084970;28;20442;-18
2023/07/05 08:30:21;;;;;;;11.40;7.72;;;;;;;30.84;50.49;99848.41;5085689;28;20058;-18
2023/07/05 08:32:47;;;;;;;12.48;7.60;;;;;;;30.92;48.99;99832.06;5084868;28;20024;-20
2023/07/05 08:35:12;;;;;;;9.68;7.50;;;;;;;30.97;48.93;99840.03;5081448;28;20043;-20
2023/07/05 08:37:38;;;;;;;10.15;7.28;;;;;;;30.82;47.76;99838.91;5084348;28;20450;-20
2023/07/05 08:40:07;;;;;;;10.43;7.28;;;;;;;30.72;47.52;99840.28;5082153;28;20419;-19
2023/07/05 08:42:49;;;;;;;9.20;7.63;;;;;;;31.01;48.88;99835.38;5075049;28;20031;-19
2023/07/05 08:45:28;;;;;;;11.88;8.43;;;;;;;31.26;46.78;99851.63;5066147;28;20025;-18
2023/07/05 08:48:02;;;;;;;10.52;7.88;;;;;;;30.98;48.58;99819.63;5081068;28;20061;-18
2023/07/05 08:50:32;;;;;;;9.48;7.60;;;;;;;31.26;45.30;99835.09;5065452;28;20564;-18
2023/07/05 08:53:20;;;;;;;9.52;6.90;;;;;;;31.38;47.04;99834.91;5056682;28;20039;-18
2023/07/05 08:55:56;;;;;;;11.30;7.75;;;;;;;31.30;47.51;99819.41;5069747;28;20523;-18
2023/07/05 08:58:28;;;;;;;10.10;7.60;;;;;;;31.67;44.71;99827.19;5084857;28;20043;-18
2023/07/05 09:01:04;;;;;;;10.20;7.47;;;;;;;31.48;45.49;99826.09;5084709;28;20067;-19
2023/07/05 09:03:38;;;;;;;9.82;7.45;;;;;;;31.82;45.47;99821.56;5085739;28;20035;-18
2023/07/05 09:06:28;;;;;;;9.32;7.60;;;;;;;31.85;43.73;99831.06;5085428;28;20115;-18
2023/07/05 09:09:04;;;;;;;11.82;7.50;;;;;;;32.11;44.11;99829.53;5065729;28;20101;-18
2023/07/05 09:11:33;;;;;;;10.52;7.63;;;;;;;32.25;45.21;99823.44;5064692;28;20029;-19
2023/07/05 09:14:16;;;;;;;9.35;7.32;;;;;;;32.22;44.79;99824.97;5071403;28;20020;-18
2023/07/05 09:17:13;;;;;;;10.50;7.28;;;;;;;32.39;42.27;99832.72;5085334;28;20082;-21
2023/07/05 09:19:58;;;;;;;10.90;7.15;;;;;;;32.52;42.21;99816.72;5020588;28;20040;-18
2023/07/05 09:22:32;;;;;;;9.35;7.38;;;;;;;32.48;43.12;99804.03;5085668;28;20016;-18
2023/07/05 09:24:58;;;;;;;10.18;7.25;;;;;;;32.43;44.22;99808.72;5085061;28;20144;-18
2023/07/05 09:27:35;;;;;;;13.13;7.18;;;;;;;32.58;43.95;99806.97;5084940;28;20048;-19
2023/07/05 09:30:13;;;;;;;10.35;7.78;;;;;;;32.59;41.83;99802.25;5084274;28;20200;-18
2023/07/05 09:32:44;;;;;;;10.18;7.43;;;;;;;32.43;44.28;99796.91;5084623;28;20027;-18
2023/07/05 09:35:20;;;;;;;8.82;7.28;;;;;;;32.80;42.57;99788.72;5083235;28;20035;-18
2023/07/05 09:38:00;;;;;;;10.83;7.97;;;;;;;32.67;41.99;99795.63;5085136;28;20027;-18
2023/07/05 09:40:35;;;;;;;9.40;7.53;;;;;;;32.74;41.70;99781.16;5084725;28;20054;-18
2023/07/05 09:43:24;;;;;;;9.52;7.05;;;;;;;32.96;41.72;99782.19;5067788;28;20062;-18
2023/07/05 09:45:51;;;;;;;9.93;7.18;;;;;;;32.92;41.89;99770.31;5072059;28;20044;-22
2023/07/05 09:48:17;;;;;;;9.50;7.55;;;;;;;33.33;42.90;99778.66;5085190;28;20085;-18
2023/07/05 09:50:50;;;;;;;10.48;7.80;;;;;;;33.76;42.23;99777.09;5084484;28;20016;-20
2023/07/05 09:53:34;;;;;;;9.23;7.15;;;;;;;33.94;40.92;99785.50;5085053;28;20116;-18
2023/07/05 09:56:12;;;;;;;10.40;6.97;;;;;;;34.08;38.88;99770.19;5082326;28;20039;-18
2023/07/05 09:58:39;;;;;;;8.95;6.35;;;;;;;34.18;38.46;99747.34;5084443;28;20123;-19
2023/07/05 10:01:12;;;;;;;8.98;6.43;;;;;;;34.23;39.48;99758.06;5084454;28;20092;-19
2023/07/05 10:03:52;;;;;;;9.45;7.00;;;;;;;34.18;38.54;99750.91;5084536;28;20028;-18
2023/07/05 10:06:21;;;;;;;10.60;6.85;;;;;;;34.14;38.48;99775.00;5084850;28;20020;-19
2023/07/05 10:08:50;;;;;;;9.32;6.47;;;;;;;34.30;39.29;99743.47;5084541;28;20042;-18
2023/07/05 10:11:33;;;;;;;8.52;6.85;;;;;;;34.27;39.69;99760.84;5084731;28;20017;-19
2023/07/05 10:14:10;;;;;;;9.93;6.63;;;;;;;34.51;38.52;99764.91;5084600;28;20032;-18
2023/07/05 10:17:04;;;;;;;8.85;6.85;;;;;;;33.87;40.21;99774.38;5084017;28;20044;-19
2023/07/05 10:19:39;;;;;;;11.43;6.72;;;;;;;34.24;40.01;99767.94;5084316;28;20036;-18
2023/07/05 10:22:15;;;;;;;9.23;7.03;;;;;;;34.75;38.47;99761.47;5084443;28;20048;-22
2023/07/05 10:24:46;;;;;;;;;;;;;;;34.69;38.96;99742.84;5084772;28;20068;-18
2023/07/05 10:27:32;;;;;;;9.98;6.72;;;;;;;35.27;38.55;99749.31;5084137;28;19966;-19
2023/07/05 10:30:07;;;;;;;8.15;6.68;;;;;;;34.93;38.43;99741.34;5083628;28;20036;-18
2023/07/05 10:32:36;;;;;;;9.77;6.90;;;;;;;34.65;39.59;99737.28;5083899;28;20099;-18
2023/07/05 10:35:18;;;;;;;10.15;6.28;;;;;;;34.66;39.10;99727.81;5083871;28;20084;-18
2023/07/05 10:37:43;;;;;;;9.88;7.75;;;;;;;34.56;41.43;99726.56;5084202;28;20027;-18
2023/07/05 10:40:12;;;;;;;11.50;7.03;;;;;;;34.42;39.41;99746.66;5084192;28;20024;-21
2023/07/05 10:42:41;;;;;;;8.07;6.43;;;;;;;34.83;41.29;99731.03;5083867;28;20089;-18
2023/07/05 10:45:19;;;;;;;9.32;6.50;;;;;;;34.99;39.58;99729.47;5083686;28;20143;-17
2023/07/05 10:47:49;;;;;;;10.82;7.05;;;;;;;35.11;37.74;99720.00;5088214;28;20542;-17
2023/07/05 10:50:15;;;;;;;10.95;6.32;;;;;;;35.05;38.81;99718.81;5088410;28;20043;-17
2023/07/05 10:53:16;;;;;;;8.23;6.38;;;;;;;35.46;38.07;99712.13;5088211;28;20032;-18
2023/07/05 10:55:54;;;;;;;9.68;6.43;;;;;;;35.11;37.45;99708.91;5084728;28;20195;-17
2023/07/05 10:58:21;;;;;;;9.13;6.53;;;;;;;35.42;38.60;99701.03;5085334;28;20127;-18
2023/07/05 11:00:56;;;;;;;9.10;6.20;;;;;;;35.19;37.33;99698.66;5088231;28;20066;-17
2023/07/05 11:03:29;;;;;;;9.40;6.30;;;;;;;35.96;35.54;99710.09;5087883;28;20035;-18
2023/07/05 11:05:58;;;;;;;11.40;9.15;;;;;;;35.97;34.82;99720.00;5088024;28;20558;-18
2023/07/05 11:08:30;;;;;;;8.05;6.10;;;;;;;35.83;35.80;99708.16;5088141;28;20111;-17
2023/07/05 11:11:00;;;;;;;8.55;6.22;;;;;;;35.52;35.62;99711.31;5088011;28;20096;-17
2023/07/05 11:13:28;;;;;;;7.68;5.97;;;;;;;35.50;36.44;99691.50;5087899;28;20588;-17
2023/07/05 11:15:54;;;;;;;7.85;6.72;;;;;;;36.03;37.63;99698.19;5088042;28;20058;-18
2023/07/05 11:18:22;;;;;;;9.55;6.65;;;;;;;35.95;38.30;99693.84;5087804;28;20059;-18
2023/07/05 11:20:56;;;;;;;7.72;6.47;;;;;;;35.98;36.34;99688.28;5087912;28;20028;-19
2023/07/05 11:23:46;;;;;;;40.22;9.52;;;;;;;35.71;36.49;99695.47;5087621;28;20779;-23
2023/07/05 11:26:31;;;;;;;14.13;7.00;;;;;;;35.55;37.04;99695.88;5084026;28;20035;-18
2023/07/05 11:29:52;;;;;;;12.75;6.93;;;;;;;34.18;38.36;99692.81;5065738;28;20058;-18
2023/07/05 11:32:23;;;;;;;14.48;6.35;;;;;;;34.48;37.56;99677.09;5072308;28;20030;-17
2023/07/05 11:34:51;;;;;;;11.23;6.28;;;;;;;33.96;37.55;99663.41;5087828;28;20028;-19
2023/07/05 11:37:16;;;;;;;10.07;6.20;;;;;;;33.86;37.49;99675.19;5087489;28;20031;-18
2023/07/05 11:39:52;;;;;;;7.50;5.55;;;;;;;33.83;38.21;99671.22;5087453;28;20032;-17